sensor_id;sensor_type;location;lat;lon;timestamp;pressure;altitude;pressure_sealevel;temperature;humidity
23574;BME280;11965;53.640;10.050;2023-05-01T00:01:46;101892.53;;;4.13;100.00
23574;BME280;11965;53.640;10.050;2023-05-01T00:04:14;101888.06;;;4.12;100.00
23574;BME280;11965;53.640;10.050;2023-05-01T00:06:42;101891.66;;;4.12;100.00
23574;BME280;11965;53.640;10.050;2023-05-01T00:09:09;101886.44;;;4.09;100.00
23574;BME280;11965;53.640;10.050;2023-05-01T00:11:36;101887.69;;;4.05;100.00
23574;BME280;11965;53.640;10.050;2023-05-01T00:14:02;101889.81;;;4.02;100.00
23574;BME280;11965;53.640;10.050;2023-05-01T00:16:29;101883.81;;;3.96;100.00
23574;BME280;11965;53.640;10.050;2023-05-01T00:18:56;101881.09;;;3.96;100.00
23574;BME280;11965;53.640;10.050;2023-05-01T00:21:24;101882.09;;;3.95;100.00
23574;BME280;11965;53.640;10.050;2023-05-01T00:23:52;101873.63;;;3.87;100.00
23574;BME280;11965;53.640;10.050;2023-05-01T00:26:20;101872.00;;;3.85;100.00
23574;BME280;11965;53.640;10.050;2023-05-01T00:28:48;101869.53;;;3.82;100.00
23574;BME280;11965;53.640;10.050;2023-05-01T00:31:15;101863.88;;;3.83;100.00
23574;BME280;11965;53.640;10.050;2023-05-01T00:33:42;101861.50;;;3.79;100.00
23574;BME280;11965;53.640;10.050;2023-05-01T00:36:09;101856.19;;;3.77;100.00
23574;BME280;11965;53.640;10.050;2023-05-01T00:38:37;101860.91;;;3.75;100.00
23574;BME280;11965;53.640;10.050;2023-05-01T00:41:04;101851.56;;;3.66;100.00
23574;BME280;11965;53.640;10.050;2023-05-01T00:43:31;101851.69;;;3.65;100.00
23574;BME280;11965;53.640;10.050;2023-05-01T00:45:58;101845.59;;;3.61;100.00
23574;BME280;11965;53.640;10.050;2023-05-01T00:48:25;101847.31;;;3.62;100.00
23574;BME280;11965;53.640;10.050;2023-05-01T00:50:53;101847.56;;;3.59;100.00
23574;BME280;11965;53.640;10.050;2023-05-01T00:53:22;101843.34;;;3.55;100.00
23574;BME280;11965;53.640;10.050;2023-05-01T00:55:53;101841.72;;;3.52;100.00
23574;BME280;11965;53.640;10.050;2023-05-01T00:58:21;101840.88;;;3.52;100.00
23574;BME280;11965;53.640;10.050;2023-05-01T01:00:48;101837.38;;;3.50;100.00
23574;BME280;11965;53.640;10.050;2023-05-01T01:03:16;101829.00;;;3.51;100.00
23574;BME280;11965;53.640;10.050;2023-05-01T01:05:48;101830.13;;;3.49;100.00
23574;BME280;11965;53.640;10.050;2023-05-01T01:08:24;101834.13;;;3.45;100.00
23574;BME280;11965;53.640;10.050;2023-05-01T01:11:03;101829.88;;;3.41;100.00
23574;BME280;11965;53.640;10.050;2023-05-01T01:13:41;101830.03;;;3.39;100.00
23574;BME280;11965;53.640;10.050;2023-05-01T01:16:15;101834.00;;;3.35;100.00
23574;BME280;11965;53.640;10.050;2023-05-01T01:18:51;101831.38;;;3.34;100.00
23574;BME280;11965;53.640;10.050;2023-05-01T01:21:30;101823.03;;;3.35;100.00
23574;BME280;11965;53.640;10.050;2023-05-01T01:24:28;101818.31;;;3.37;100.00
23574;BME280;11965;53.640;10.050;2023-05-01T01:30:48;101818.66;;;3.32;100.00
23574;BME280;11965;53.640;10.050;2023-05-01T01:36:45;101818.56;;;3.23;100.00
23574;BME280;11965;53.640;10.050;2023-05-01T01:39:28;101822.66;;;3.17;100.00
23574;BME280;11965;53.640;10.050;2023-05-01T01:41:57;101810.69;;;3.18;100.00
23574;BME280;11965;53.640;10.050;2023-05-01T01:44:32;101809.81;;;3.18;100.00
23574;BME280;11965;53.640;10.050;2023-05-01T01:47:04;101817.19;;;3.17;100.00
23574;BME280;11965;53.640;10.050;2023-05-01T01:49:37;101817.91;;;3.19;100.00
23574;BME280;11965;53.640;10.050;2023-05-01T01:52:12;101813.69;;;3.15;100.00
23574;BME280;11965;53.640;10.050;2023-05-01T01:54:47;101810.44;;;3.10;100.00
23574;BME280;11965;53.640;10.050;2023-05-01T01:57:17;101805.06;;;3.08;100.00
23574;BME280;11965;53.640;10.050;2023-05-01T01:59:48;101811.56;;;3.07;100.00
23574;BME280;11965;53.640;10.050;2023-05-01T02:02:18;101803.59;;;3.04;100.00
23574;BME280;11965;53.640;10.050;2023-05-01T02:04:47;101802.72;;;3.04;100.00
23574;BME280;11965;53.640;10.050;2023-05-01T02:07:18;101795.97;;;2.97;100.00
23574;BME280;11965;53.640;10.050;2023-05-01T02:09:45;101804.09;;;2.98;100.00
23574;BME280;11965;53.640;10.050;2023-05-01T02:12:16;101790.09;;;2.90;100.00
23574;BME280;11965;53.640;10.050;2023-05-01T02:14:47;101787.50;;;2.88;100.00
23574;BME280;11965;53.640;10.050;2023-05-01T02:17:18;101788.13;;;2.92;100.00
23574;BME280;11965;53.640;10.050;2023-05-01T02:19:46;101787.25;;;2.92;100.00
23574;BME280;11965;53.640;10.050;2023-05-01T02:22:17;101784.25;;;2.83;100.00
23574;BME280;11965;53.640;10.050;2023-05-01T02:24:48;101781.25;;;2.86;100.00
23574;BME280;11965;53.640;10.050;2023-05-01T02:27:19;101781.25;;;2.86;100.00
23574;BME280;11965;53.640;10.050;2023-05-01T02:29:50;101779.78;;;2.82;100.00
23574;BME280;11965;53.640;10.050;2023-05-01T02:32:18;101775.28;;;2.81;100.00
23574;BME280;11965;53.640;10.050;2023-05-01T02:34:45;101773.53;;;2.80;100.00
23574;BME280;11965;53.640;10.050;2023-05-01T02:37:12;101770.91;;;2.79;100.00
23574;BME280;11965;53.640;10.050;2023-05-01T02:39:43;101767.44;;;2.77;100.00
23574;BME280;11965;53.640;10.050;2023-05-01T02:42:14;101757.38;;;2.77;100.00
23574;BME280;11965;53.640;10.050;2023-05-01T02:44:47;101761.97;;;2.77;100.00
23574;BME280;11965;53.640;10.050;2023-05-01T02:47:19;101757.38;;;2.77;100.00
23574;BME280;11965;53.640;10.050;2023-05-01T02:49:50;101759.44;;;2.74;100.00
23574;BME280;11965;53.640;10.050;2023-05-01T02:52:18;101759.44;;;2.74;100.00
23574;BME280;11965;53.640;10.050;2023-05-01T02:54:51;101748.50;;;2.74;100.00
23574;BME280;11965;53.640;10.050;2023-05-01T02:57:18;101743.28;;;2.71;100.00
23574;BME280;11965;53.640;10.050;2023-05-01T02:59:45;101747.63;;;2.73;100.00
23574;BME280;11965;53.640;10.050;2023-05-01T03:02:12;101759.44;;;2.74;100.00
23574;BME280;11965;53.640;10.050;2023-05-01T03:04:40;101746.78;;;2.73;100.00
23574;BME280;11965;53.640;10.050;2023-05-01T03:07:08;101742.31;;;2.72;100.00
23574;BME280;11965;53.640;10.050;2023-05-01T03:09:35;101741.41;;;2.71;100.00
23574;BME280;11965;53.640;10.050;2023-05-01T03:12:04;101740.53;;;2.71;100.00
23574;BME280;11965;53.640;10.050;2023-05-01T03:14:31;101735.06;;;2.71;100.00
23574;BME280;11965;53.640;10.050;2023-05-01T03:16:58;101727.50;;;2.74;100.00
23574;BME280;11965;53.640;10.050;2023-05-01T03:19:25;101738.56;;;2.73;100.00
23574;BME280;11965;53.640;10.050;2023-05-01T03:21:51;101735.81;;;2.73;100.00
23574;BME280;11965;53.640;10.050;2023-05-01T03:24:18;101732.22;;;2.72;100.00
23574;BME280;11965;53.640;10.050;2023-05-01T03:26:45;101725.88;;;2.72;100.00
23574;BME280;11965;53.640;10.050;2023-05-01T03:29:14;101723.25;;;2.70;100.00
23574;BME280;11965;53.640;10.050;2023-05-01T03:31:42;101716.66;;;2.73;100.00
23574;BME280;11965;53.640;10.050;2023-05-01T03:34:09;101713.81;;;2.74;100.00
23574;BME280;11965;53.640;10.050;2023-05-01T03:36:36;101705.59;;;2.74;100.00
23574;BME280;11965;53.640;10.050;2023-05-01T03:39:04;101708.94;;;2.78;100.00
23574;BME280;11965;53.640;10.050;2023-05-01T03:41:51;101706.22;;;2.78;100.00
23574;BME280;11965;53.640;10.050;2023-05-01T03:44:23;101704.34;;;2.78;100.00
23574;BME280;11965;53.640;10.050;2023-05-01T03:46:52;101706.22;;;2.78;100.00
23574;BME280;11965;53.640;10.050;2023-05-01T03:49:23;101705.22;;;2.79;100.00
23574;BME280;11965;53.640;10.050;2023-05-01T03:51:50;101698.63;;;2.81;100.00
23574;BME280;11965;53.640;10.050;2023-05-01T03:54:17;101700.38;;;2.82;100.00
23574;BME280;11965;53.640;10.050;2023-05-01T03:57:11;101698.25;;;2.86;100.00
23574;BME280;11965;53.640;10.050;2023-05-01T03:59:40;101691.50;;;2.90;100.00
23574;BME280;11965;53.640;10.050;2023-05-01T04:02:09;101689.53;;;2.92;100.00
23574;BME280;11965;53.640;10.050;2023-05-01T04:04:36;101686.53;;;2.95;100.00
23574;BME280;11965;53.640;10.050;2023-05-01T04:07:05;101692.78;;;2.97;100.00
23574;BME280;11965;53.640;10.050;2023-05-01T04:09:32;101684.31;;;3.00;100.00
23574;BME280;11965;53.640;10.050;2023-05-01T04:11:58;101684.81;;;3.05;100.00
23574;BME280;11965;53.640;10.050;2023-05-01T04:14:27;101684.53;;;3.08;100.00
23574;BME280;11965;53.640;10.050;2023-05-01T04:16:56;101679.81;;;3.10;100.00
23574;BME280;11965;53.640;10.050;2023-05-01T04:19:24;101673.81;;;3.17;100.00
23574;BME280;11965;53.640;10.050;2023-05-01T04:21:55;101667.97;;;3.21;100.00
23574;BME280;11965;53.640;10.050;2023-05-01T04:24:24;101666.00;;;3.23;100.00
23574;BME280;11965;53.640;10.050;2023-05-01T04:26:52;101672.19;;;3.37;100.00
23574;BME280;11965;53.640;10.050;2023-05-01T04:29:19;101670.94;;;3.41;100.00
23574;BME280;11965;53.640;10.050;2023-05-01T04:31:46;101668.94;;;3.43;100.00
23574;BME280;11965;53.640;10.050;2023-05-01T04:34:14;101669.31;;;3.49;100.00
23574;BME280;11965;53.640;10.050;2023-05-01T04:36:41;101669.53;;;3.58;100.00
23574;BME280;11965;53.640;10.050;2023-05-01T04:39:08;101660.63;;;3.65;100.00
23574;BME280;11965;53.640;10.050;2023-05-01T04:41:36;101663.75;;;3.72;100.00
23574;BME280;11965;53.640;10.050;2023-05-01T04:44:04;101663.22;;;3.78;100.00
23574;BME280;11965;53.640;10.050;2023-05-01T04:46:31;101659.72;;;3.87;100.00
23574;BME280;11965;53.640;10.050;2023-05-01T04:48:58;101660.91;;;3.94;100.00
23574;BME280;11965;53.640;10.050;2023-05-01T04:51:26;101655.50;;;4.04;100.00
23574;BME280;11965;53.640;10.050;2023-05-01T04:53:53;101652.09;;;4.12;100.00
23574;BME280;11965;53.640;10.050;2023-05-01T04:56:24;101654.91;;;4.21;100.00
23574;BME280;11965;53.640;10.050;2023-05-01T04:58:55;101652.22;;;4.31;100.00
23574;BME280;11965;53.640;10.050;2023-05-01T05:01:25;101649.69;;;4.39;100.00
23574;BME280;11965;53.640;10.050;2023-05-01T05:03:51;101656.22;;;4.48;100.00
23574;BME280;11965;53.640;10.050;2023-05-01T05:06:18;101648.06;;;4.58;100.00
23574;BME280;11965;53.640;10.050;2023-05-01T05:08:47;101651.00;;;4.66;100.00
23574;BME280;11965;53.640;10.050;2023-05-01T05:11:16;101655.66;;;4.75;100.00
23574;BME280;11965;53.640;10.050;2023-05-01T05:13:54;101652.56;;;4.90;100.00
23574;BME280;11965;53.640;10.050;2023-05-01T05:16:21;101643.47;;;4.99;100.00
23574;BME280;11965;53.640;10.050;2023-05-01T05:18:47;101655.81;;;5.14;100.00
23574;BME280;11965;53.640;10.050;2023-05-01T05:21:15;101649.19;;;5.26;100.00
23574;BME280;11965;53.640;10.050;2023-05-01T05:23:48;101640.84;;;5.38;98.91
23574;BME280;11965;53.640;10.050;2023-05-01T05:26:15;101649.72;;;5.51;99.90
23574;BME280;11965;53.640;10.050;2023-05-01T05:28:42;101649.41;;;5.64;97.91
23574;BME280;11965;53.640;10.050;2023-05-01T05:31:09;101647.53;;;5.74;98.27
23574;BME280;11965;53.640;10.050;2023-05-01T05:33:36;101649.44;;;5.83;94.70
23574;BME280;11965;53.640;10.050;2023-05-01T05:36:05;101644.81;;;5.93;94.19
23574;BME280;11965;53.640;10.050;2023-05-01T05:38:37;101645.88;;;6.02;94.83
23574;BME280;11965;53.640;10.050;2023-05-01T05:41:08;101639.91;;;6.07;95.62
23574;BME280;11965;53.640;10.050;2023-05-01T05:43:35;101636.41;;;6.14;94.32
23574;BME280;11965;53.640;10.050;2023-05-01T05:46:02;101636.97;;;6.28;93.44
23574;BME280;11965;53.640;10.050;2023-05-01T05:48:32;101635.22;;;6.36;90.34
23574;BME280;11965;53.640;10.050;2023-05-01T05:50:59;101634.06;;;6.49;90.18
23574;BME280;11965;53.640;10.050;2023-05-01T05:53:26;101629.53;;;6.57;88.97
23574;BME280;11965;53.640;10.050;2023-05-01T05:55:53;101631.66;;;6.73;83.40
23574;BME280;11965;53.640;10.050;2023-05-01T05:58:22;101628.00;;;6.82;84.88
23574;BME280;11965;53.640;10.050;2023-05-01T06:00:50;101626.38;;;6.90;88.06
23574;BME280;11965;53.640;10.050;2023-05-01T06:03:17;101623.00;;;6.96;83.49
23574;BME280;11965;53.640;10.050;2023-05-01T06:05:45;101626.16;;;7.01;86.41
23574;BME280;11965;53.640;10.050;2023-05-01T06:08:12;101619.66;;;7.02;85.79
23574;BME280;11965;53.640;10.050;2023-05-01T06:10:42;101615.66;;;7.14;84.69
23574;BME280;11965;53.640;10.050;2023-05-01T06:13:09;101607.19;;;7.25;81.69
23574;BME280;11965;53.640;10.050;2023-05-01T06:15:38;101606.78;;;7.38;82.96
23574;BME280;11965;53.640;10.050;2023-05-01T06:18:05;101609.50;;;7.48;81.26
23574;BME280;11965;53.640;10.050;2023-05-01T06:20:32;101603.44;;;7.62;81.96
23574;BME280;11965;53.640;10.050;2023-05-01T06:22:59;101602.25;;;7.83;77.38
23574;BME280;11965;53.640;10.050;2023-05-01T06:25:40;101600.13;;;7.94;75.99
23574;BME280;11965;53.640;10.050;2023-05-01T06:28:07;101600.44;;;8.09;74.71
23574;BME280;11965;53.640;10.050;2023-05-01T06:30:34;101603.63;;;8.23;74.50
23574;BME280;11965;53.640;10.050;2023-05-01T06:33:02;101597.66;;;8.35;71.94
23574;BME280;11965;53.640;10.050;2023-05-01T06:35:30;101596.56;;;8.46;73.79
23574;BME280;11965;53.640;10.050;2023-05-01T06:37:57;101595.28;;;8.58;73.11
23574;BME280;11965;53.640;10.050;2023-05-01T06:40:24;101587.06;;;8.75;72.64
23574;BME280;11965;53.640;10.050;2023-05-01T06:42:51;101589.56;;;8.94;71.66
23574;BME280;11965;53.640;10.050;2023-05-01T06:45:18;101586.69;;;9.04;67.99
23574;BME280;11965;53.640;10.050;2023-05-01T06:47:45;101578.44;;;9.20;72.54
23574;BME280;11965;53.640;10.050;2023-05-01T06:50:13;101580.22;;;9.29;67.33
23574;BME280;11965;53.640;10.050;2023-05-01T06:52:41;101587.00;;;9.35;68.76
23574;BME280;11965;53.640;10.050;2023-05-01T06:55:08;101566.44;;;9.54;64.72
23574;BME280;11965;53.640;10.050;2023-05-01T06:57:35;101565.63;;;9.78;66.92
23574;BME280;11965;53.640;10.050;2023-05-01T07:00:03;101564.91;;;9.92;69.77
23574;BME280;11965;53.640;10.050;2023-05-01T07:02:30;101562.47;;;10.14;62.11
23574;BME280;11965;53.640;10.050;2023-05-01T07:04:56;101562.50;;;10.30;62.68
23574;BME280;11965;53.640;10.050;2023-05-01T07:07:25;101558.13;;;10.44;61.74
23574;BME280;11965;53.640;10.050;2023-05-01T07:09:51;101554.31;;;10.53;63.41
23574;BME280;11965;53.640;10.050;2023-05-01T07:12:18;101556.19;;;10.61;62.48
23574;BME280;11965;53.640;10.050;2023-05-01T07:14:45;101549.59;;;10.70;58.92
23574;BME280;11965;53.640;10.050;2023-05-01T07:17:12;101544.88;;;10.79;60.98
23574;BME280;11965;53.640;10.050;2023-05-01T07:19:39;101541.88;;;10.89;56.63
23574;BME280;11965;53.640;10.050;2023-05-01T07:22:06;101544.13;;;10.85;55.20
23574;BME280;11965;53.640;10.050;2023-05-01T07:24:34;101532.97;;;11.01;54.33
23574;BME280;11965;53.640;10.050;2023-05-01T07:27:01;101531.38;;;11.15;57.59
23574;BME280;11965;53.640;10.050;2023-05-01T07:29:28;101528.91;;;11.20;54.88
23574;BME280;11965;53.640;10.050;2023-05-01T07:31:55;101527.47;;;11.24;57.97
23574;BME280;11965;53.640;10.050;2023-05-01T07:34:22;101518.03;;;11.42;54.87
23574;BME280;11965;53.640;10.050;2023-05-01T07:36:49;101518.75;;;11.59;56.01
23574;BME280;11965;53.640;10.050;2023-05-01T07:39:16;101504.84;;;11.82;53.77
23574;BME280;11965;53.640;10.050;2023-05-01T07:41:44;101508.81;;;11.87;55.86
23574;BME280;11965;53.640;10.050;2023-05-01T07:44:12;101503.22;;;12.10;51.66
23574;BME280;11965;53.640;10.050;2023-05-01T07:46:39;101501.59;;;12.01;52.18
23574;BME280;11965;53.640;10.050;2023-05-01T07:49:06;101497.94;;;12.01;52.60
23574;BME280;11965;53.640;10.050;2023-05-01T07:51:33;101492.66;;;12.06;51.02
23574;BME280;11965;53.640;10.050;2023-05-01T07:54:00;101491.63;;;12.07;50.85
23574;BME280;11965;53.640;10.050;2023-05-01T07:56:28;101490.69;;;12.14;49.50
23574;BME280;11965;53.640;10.050;2023-05-01T07:58:58;101484.66;;;12.26;48.43
23574;BME280;11965;53.640;10.050;2023-05-01T08:01:25;101487.94;;;12.44;50.86
23574;BME280;11965;53.640;10.050;2023-05-01T08:03:52;101484.97;;;12.60;49.86
23574;BME280;11965;53.640;10.050;2023-05-01T08:06:19;101479.69;;;12.66;50.20
23574;BME280;11965;53.640;10.050;2023-05-01T08:08:46;101484.25;;;12.73;48.88
23574;BME280;11965;53.640;10.050;2023-05-01T08:11:12;101487.72;;;12.90;50.82
23574;BME280;11965;53.640;10.050;2023-05-01T08:13:40;101479.81;;;12.94;50.91
23574;BME280;11965;53.640;10.050;2023-05-01T08:16:09;101483.13;;;12.82;44.47
23574;BME280;11965;53.640;10.050;2023-05-01T08:18:36;101484.13;;;12.96;47.48
23574;BME280;11965;53.640;10.050;2023-05-01T08:21:03;101492.47;;;13.11;49.21
23574;BME280;11965;53.640;10.050;2023-05-01T08:23:29;101485.16;;;13.10;46.56
23574;BME280;11965;53.640;10.050;2023-05-01T08:25:56;101488.03;;;13.17;46.27
23574;BME280;11965;53.640;10.050;2023-05-01T08:28:23;101479.28;;;13.20;44.49
23574;BME280;11965;53.640;10.050;2023-05-01T08:30:50;101477.63;;;13.25;46.10
23574;BME280;11965;53.640;10.050;2023-05-01T08:33:19;101473.25;;;13.53;47.07
23574;BME280;11965;53.640;10.050;2023-05-01T08:35:45;101484.66;;;13.58;45.39
23574;BME280;11965;53.640;10.050;2023-05-01T08:38:13;101467.81;;;13.66;45.30
23574;BME280;11965;53.640;10.050;2023-05-01T08:40:46;101478.75;;;13.46;45.08
23574;BME280;11965;53.640;10.050;2023-05-01T08:43:14;101474.59;;;13.57;46.60
23574;BME280;11965;53.640;10.050;2023-05-01T08:45:43;101471.13;;;13.76;46.47
23574;BME280;11965;53.640;10.050;2023-05-01T08:48:11;101464.41;;;13.92;47.36
23574;BME280;11965;53.640;10.050;2023-05-01T08:50:44;101460.63;;;14.06;46.32
23574;BME280;11965;53.640;10.050;2023-05-01T08:53:14;101469.19;;;14.05;44.43
23574;BME280;11965;53.640;10.050;2023-05-01T08:55:44;101459.06;;;13.97;47.07
23574;BME280;11965;53.640;10.050;2023-05-01T08:58:12;101452.47;;;14.05;47.02
23574;BME280;11965;53.640;10.050;2023-05-01T09:00:40;101456.44;;;14.24;48.62
23574;BME280;11965;53.640;10.050;2023-05-01T09:03:11;101450.47;;;14.55;49.63
23574;BME280;11965;53.640;10.050;2023-05-01T09:05:39;101442.94;;;14.55;46.79
23574;BME280;11965;53.640;10.050;2023-05-01T09:08:06;101444.53;;;14.65;45.98
23574;BME280;11965;53.640;10.050;2023-05-01T09:10:40;101440.03;;;14.70;46.82
23574;BME280;11965;53.640;10.050;2023-05-01T09:13:08;101437.25;;;14.77;44.46
23574;BME280;11965;53.640;10.050;2023-05-01T09:15:35;101435.19;;;14.86;45.56
23574;BME280;11965;53.640;10.050;2023-05-01T09:18:03;101419.91;;;14.82;46.21
23574;BME280;11965;53.640;10.050;2023-05-01T09:20:30;101419.75;;;15.03;44.13
23574;BME280;11965;53.640;10.050;2023-05-01T09:22:59;101412.31;;;15.23;44.83
23574;BME280;11965;53.640;10.050;2023-05-01T09:25:26;101419.84;;;15.43;43.89
23574;BME280;11965;53.640;10.050;2023-05-01T09:27:53;101418.31;;;15.47;46.81
23574;BME280;11965;53.640;10.050;2023-05-01T09:30:39;101406.09;;;15.55;43.98
23574;BME280;11965;53.640;10.050;2023-05-01T09:33:09;101397.94;;;15.66;42.88
23574;BME280;11965;53.640;10.050;2023-05-01T09:35:50;101403.28;;;15.55;44.46
23574;BME280;11965;53.640;10.050;2023-05-01T09:38:20;101404.38;;;15.60;42.83
23574;BME280;11965;53.640;10.050;2023-05-01T09:40:47;101413.22;;;15.64;45.06
23574;BME280;11965;53.640;10.050;2023-05-01T09:43:23;101401.34;;;15.55;43.58
23574;BME280;11965;53.640;10.050;2023-05-01T09:46:09;101402.66;;;15.66;45.30
23574;BME280;11965;53.640;10.050;2023-05-01T09:48:37;101398.16;;;15.52;41.78
23574;BME280;11965;53.640;10.050;2023-05-01T09:51:20;101393.88;;;15.56;40.77
23574;BME280;11965;53.640;10.050;2023-05-01T09:53:49;101393.44;;;15.59;42.69
23574;BME280;11965;53.640;10.050;2023-05-01T09:56:17;101396.00;;;15.54;42.85
23574;BME280;11965;53.640;10.050;2023-05-01T09:58:44;101388.25;;;15.49;41.24
23574;BME280;11965;53.640;10.050;2023-05-01T10:01:11;101379.88;;;15.56;43.13
23574;BME280;11965;53.640;10.050;2023-05-01T10:03:38;101378.41;;;15.73;43.81
23574;BME280;11965;53.640;10.050;2023-05-01T10:06:05;101380.97;;;15.88;45.95
23574;BME280;11965;53.640;10.050;2023-05-01T10:08:45;101382.50;;;15.90;39.97
23574;BME280;11965;53.640;10.050;2023-05-01T10:11:14;101379.00;;;15.95;41.33
23574;BME280;11965;53.640;10.050;2023-05-01T10:13:41;101376.41;;;16.20;40.63
23574;BME280;11965;53.640;10.050;2023-05-01T10:16:27;101372.91;;;16.31;40.68
23574;BME280;11965;53.640;10.050;2023-05-01T10:18:55;101369.63;;;16.41;39.96
23574;BME280;11965;53.640;10.050;2023-05-01T10:21:22;101365.09;;;16.47;40.25
23574;BME280;11965;53.640;10.050;2023-05-01T10:23:50;101369.41;;;16.49;37.91
23574;BME280;11965;53.640;10.050;2023-05-01T10:26:19;101362.69;;;16.57;40.06
23574;BME280;11965;53.640;10.050;2023-05-01T10:28:47;101361.63;;;16.58;35.18
23574;BME280;11965;53.640;10.050;2023-05-01T10:31:15;101358.78;;;16.65;39.40
23574;BME280;11965;53.640;10.050;2023-05-01T10:33:43;101353.22;;;16.58;40.32
23574;BME280;11965;53.640;10.050;2023-05-01T10:36:16;101341.34;;;16.69;38.45
23574;BME280;11965;53.640;10.050;2023-05-01T10:38:45;101343.25;;;16.82;38.26
23574;BME280;11965;53.640;10.050;2023-05-01T10:41:13;101335.97;;;17.06;40.05
23574;BME280;11965;53.640;10.050;2023-05-01T10:43:42;101338.69;;;17.19;39.24
23574;BME280;11965;53.640;10.050;2023-05-01T10:46:28;101336.66;;;17.02;39.14
23574;BME280;11965;53.640;10.050;2023-05-01T10:48:58;101332.63;;;16.91;36.43
23574;BME280;11965;53.640;10.050;2023-05-01T10:51:26;101325.19;;;16.71;39.58
23574;BME280;11965;53.640;10.050;2023-05-01T10:54:21;101315.09;;;16.64;37.63
23574;BME280;11965;53.640;10.050;2023-05-01T10:56:49;101322.13;;;16.73;38.32
23574;BME280;11965;53.640;10.050;2023-05-01T10:59:18;101319.59;;;16.65;35.57
23574;BME280;11965;53.640;10.050;2023-05-01T11:01:46;101320.50;;;16.59;39.10
23574;BME280;11965;53.640;10.050;2023-05-01T11:04:47;101313.09;;;16.71;38.09
23574;BME280;11965;53.640;10.050;2023-05-01T11:07:16;101305.13;;;16.81;37.26
23574;BME280;11965;53.640;10.050;2023-05-01T11:09:44;101311.19;;;17.03;39.25
23574;BME280;11965;53.640;10.050;2023-05-01T11:12:13;101298.78;;;17.24;36.04
23574;BME280;11965;53.640;10.050;2023-05-01T11:15:04;101300.53;;;17.43;33.17
23574;BME280;11965;53.640;10.050;2023-05-01T11:17:45;101286.69;;;17.74;36.34
23574;BME280;11965;53.640;10.050;2023-05-01T11:20:45;101292.66;;;17.84;34.77
23574;BME280;11965;53.640;10.050;2023-05-01T11:23:21;101284.34;;;17.71;35.15
23574;BME280;11965;53.640;10.050;2023-05-01T11:25:48;101282.78;;;17.75;36.63
23574;BME280;11965;53.640;10.050;2023-05-01T11:28:20;101278.88;;;17.76;34.69
23574;BME280;11965;53.640;10.050;2023-05-01T11:30:49;101273.56;;;17.24;34.93
23574;BME280;11965;53.640;10.050;2023-05-01T11:33:23;101272.31;;;17.20;37.17
23574;BME280;11965;53.640;10.050;2023-05-01T11:36:01;101277.16;;;17.31;36.67
23574;BME280;11965;53.640;10.050;2023-05-01T11:38:29;101269.50;;;17.45;38.32
23574;BME280;11965;53.640;10.050;2023-05-01T11:41:00;101263.75;;;17.58;37.62
23574;BME280;11965;53.640;10.050;2023-05-01T11:43:29;101260.88;;;17.65;36.94
23574;BME280;11965;53.640;10.050;2023-05-01T11:45:57;101245.78;;;17.66;34.17
23574;BME280;11965;53.640;10.050;2023-05-01T11:48:30;101249.78;;;17.77;35.67
23574;BME280;11965;53.640;10.050;2023-05-01T11:50:57;101241.72;;;17.87;35.66
23574;BME280;11965;53.640;10.050;2023-05-01T11:53:24;101247.84;;;17.96;35.76
23574;BME280;11965;53.640;10.050;2023-05-01T11:55:51;101237.47;;;18.15;35.67
23574;BME280;11965;53.640;10.050;2023-05-01T11:58:34;101240.44;;;18.01;32.36
23574;BME280;11965;53.640;10.050;2023-05-01T12:01:04;101246.38;;;18.12;34.91
23574;BME280;11965;53.640;10.050;2023-05-01T12:03:40;101238.34;;;17.97;33.77
23574;BME280;11965;53.640;10.050;2023-05-01T12:06:08;101238.13;;;17.80;31.54
23574;BME280;11965;53.640;10.050;2023-05-01T12:08:36;101232.47;;;17.61;33.44
23574;BME280;11965;53.640;10.050;2023-05-01T12:11:07;101239.50;;;17.71;35.37
23574;BME280;11965;53.640;10.050;2023-05-01T12:13:34;101226.97;;;17.73;34.26
23574;BME280;11965;53.640;10.050;2023-05-01T12:16:01;101229.03;;;17.78;33.71
23574;BME280;11965;53.640;10.050;2023-05-01T12:18:31;101223.78;;;17.88;35.18
23574;BME280;11965;53.640;10.050;2023-05-01T12:20:58;101222.03;;;17.69;33.45
23574;BME280;11965;53.640;10.050;2023-05-01T12:23:31;101224.28;;;17.78;35.56
23574;BME280;11965;53.640;10.050;2023-05-01T12:25:58;101224.69;;;17.63;33.76
23574;BME280;11965;53.640;10.050;2023-05-01T12:28:25;101223.19;;;17.61;33.99
23574;BME280;11965;53.640;10.050;2023-05-01T12:30:52;101217.44;;;17.74;35.27
23574;BME280;11965;53.640;10.050;2023-05-01T12:33:21;101207.56;;;17.72;35.52
23574;BME280;11965;53.640;10.050;2023-05-01T12:35:49;101209.88;;;17.75;35.16
23574;BME280;11965;53.640;10.050;2023-05-01T12:38:18;101210.50;;;17.77;34.38
23574;BME280;11965;53.640;10.050;2023-05-01T12:40:50;101207.31;;;17.55;33.35
23574;BME280;11965;53.640;10.050;2023-05-01T12:43:19;101200.38;;;17.39;34.24
23574;BME280;11965;53.640;10.050;2023-05-01T12:45:50;101206.31;;;17.49;37.39
23574;BME280;11965;53.640;10.050;2023-05-01T12:48:19;101210.44;;;17.83;35.93
23574;BME280;11965;53.640;10.050;2023-05-01T12:50:46;101193.09;;;17.93;32.94
23574;BME280;11965;53.640;10.050;2023-05-01T12:53:21;101191.75;;;17.96;32.66
23574;BME280;11965;53.640;10.050;2023-05-01T12:55:50;101196.19;;;18.03;34.56
23574;BME280;11965;53.640;10.050;2023-05-01T12:58:18;101197.72;;;18.18;32.49
23574;BME280;11965;53.640;10.050;2023-05-01T13:00:47;101187.09;;;18.38;34.68